sensor_id;sensor_type;location;lat;lon;timestamp;pressure;altitude;pressure_sealevel;temperature;humidity
34961;BME280;30789;52.030;7.110;2024-01-10T00:01:03;102390.19;;;-4.81;62.69
34961;BME280;30789;52.030;7.110;2024-01-10T00:03:30;102387.03;;;-4.78;62.46
34961;BME280;30789;52.030;7.110;2024-01-10T00:05:57;102386.06;;;-4.72;62.72
34961;BME280;30789;52.030;7.110;2024-01-10T00:08:24;102387.75;;;-4.82;62.21
34961;BME280;30789;52.030;7.110;2024-01-10T00:10:51;102381.97;;;-4.91;62.99
34961;BME280;30789;52.030;7.110;2024-01-10T00:13:19;102384.03;;;-4.81;63.24
34961;BME280;30789;52.030;7.110;2024-01-10T00:15:46;102379.13;;;-4.84;62.88
34961;BME280;30789;52.030;7.110;2024-01-10T00:18:12;102372.81;;;-4.90;62.92
34961;BME280;30789;52.030;7.110;2024-01-10T00:20:39;102364.59;;;-5.00;63.02
34961;BME280;30789;52.030;7.110;2024-01-10T00:23:07;102369.47;;;-4.97;62.89
34961;BME280;30789;52.030;7.110;2024-01-10T00:25:33;102374.16;;;-5.04;63.54
34961;BME280;30789;52.030;7.110;2024-01-10T00:27:59;102378.75;;;-5.04;63.04
34961;BME280;30789;52.030;7.110;2024-01-10T00:30:26;102373.63;;;-5.06;63.52
34961;BME280;30789;52.030;7.110;2024-01-10T00:32:52;102371.09;;;-4.96;63.95
34961;BME280;30789;52.030;7.110;2024-01-10T00:35:19;102367.50;;;-5.01;64.08
34961;BME280;30789;52.030;7.110;2024-01-10T00:37:45;102369.84;;;-5.05;63.58
34961;BME280;30789;52.030;7.110;2024-01-10T00:40:13;102372.53;;;-5.05;63.91
34961;BME280;30789;52.030;7.110;2024-01-10T00:42:40;102365.97;;;-4.97;64.09
34961;BME280;30789;52.030;7.110;2024-01-10T00:45:07;102361.72;;;-4.93;63.71
34961;BME280;30789;52.030;7.110;2024-01-10T00:47:33;102367.19;;;-4.88;63.88
34961;BME280;30789;52.030;7.110;2024-01-10T00:49:59;102351.50;;;-4.80;63.69
34961;BME280;30789;52.030;7.110;2024-01-10T00:52:26;102345.78;;;-4.83;63.04
34961;BME280;30789;52.030;7.110;2024-01-10T00:54:53;102350.34;;;-4.84;63.79
34961;BME280;30789;52.030;7.110;2024-01-10T00:57:20;102341.56;;;-4.79;63.27
34961;BME280;30789;52.030;7.110;2024-01-10T00:59:47;102344.88;;;-4.89;63.53
34961;BME280;30789;52.030;7.110;2024-01-10T01:02:13;102349.72;;;-5.02;63.37
34961;BME280;30789;52.030;7.110;2024-01-10T01:04:40;102344.94;;;-5.00;64.13
34961;BME280;30789;52.030;7.110;2024-01-10T01:07:07;102334.13;;;-4.89;63.86
34961;BME280;30789;52.030;7.110;2024-01-10T01:09:33;102337.38;;;-4.87;63.70
34961;BME280;30789;52.030;7.110;2024-01-10T01:12:00;102337.53;;;-4.93;63.86
34961;BME280;30789;52.030;7.110;2024-01-10T01:14:28;102338.69;;;-4.89;63.96
34961;BME280;30789;52.030;7.110;2024-01-10T01:16:53;102342.34;;;-4.95;63.67
34961;BME280;30789;52.030;7.110;2024-01-10T01:19:20;102338.47;;;-4.88;64.39
34961;BME280;30789;52.030;7.110;2024-01-10T01:21:46;102342.28;;;-4.84;63.70
34961;BME280;30789;52.030;7.110;2024-01-10T01:24:13;102336.19;;;-4.79;63.72
34961;BME280;30789;52.030;7.110;2024-01-10T01:26:39;102354.19;;;-4.80;63.85
34961;BME280;30789;52.030;7.110;2024-01-10T01:29:06;102348.97;;;-4.86;63.94
34961;BME280;30789;52.030;7.110;2024-01-10T01:31:35;102352.69;;;-4.87;63.68
34961;BME280;30789;52.030;7.110;2024-01-10T01:34:02;102355.63;;;-4.89;63.65
34961;BME280;30789;52.030;7.110;2024-01-10T01:36:29;102337.38;;;-4.87;64.32
34961;BME280;30789;52.030;7.110;2024-01-10T01:38:55;102345.94;;;-4.90;64.44
34961;BME280;30789;52.030;7.110;2024-01-10T01:41:22;102345.34;;;-4.92;64.51
34961;BME280;30789;52.030;7.110;2024-01-10T01:43:48;102338.00;;;-4.96;64.36
34961;BME280;30789;52.030;7.110;2024-01-10T01:46:15;102345.94;;;-4.90;64.95
34961;BME280;30789;52.030;7.110;2024-01-10T01:48:43;102347.47;;;-5.10;64.50
34961;BME280;30789;52.030;7.110;2024-01-10T01:51:12;102341.66;;;-5.02;65.02
34961;BME280;30789;52.030;7.110;2024-01-10T01:53:41;102341.13;;;-5.04;65.17
34961;BME280;30789;52.030;7.110;2024-01-10T01:56:10;102329.06;;;-5.02;65.36
34961;BME280;30789;52.030;7.110;2024-01-10T01:58:39;102330.19;;;-4.98;65.12
34961;BME280;30789;52.030;7.110;2024-01-10T02:01:06;102325.88;;;-4.99;65.20
34961;BME280;30789;52.030;7.110;2024-01-10T02:03:34;102326.38;;;-5.02;65.70
34961;BME280;30789;52.030;7.110;2024-01-10T02:06:02;102329.78;;;-5.06;65.10
34961;BME280;30789;52.030;7.110;2024-01-10T02:08:29;102324.16;;;-5.05;65.26
34961;BME280;30789;52.030;7.110;2024-01-10T02:10:56;102326.75;;;-5.10;65.00
34961;BME280;30789;52.030;7.110;2024-01-10T02:13:22;102319.38;;;-5.03;64.85
34961;BME280;30789;52.030;7.110;2024-01-10T02:15:49;102316.25;;;-5.11;65.20
34961;BME280;30789;52.030;7.110;2024-01-10T02:18:16;102317.16;;;-5.06;64.96
34961;BME280;30789;52.030;7.110;2024-01-10T02:20:43;102311.63;;;-4.99;65.27
34961;BME280;30789;52.030;7.110;2024-01-10T02:23:12;102310.97;;;-5.06;64.48
34961;BME280;30789;52.030;7.110;2024-01-10T02:25:40;102318.31;;;-5.02;64.96
34961;BME280;30789;52.030;7.110;2024-01-10T02:28:07;102312.19;;;-4.97;63.96
34961;BME280;30789;52.030;7.110;2024-01-10T02:30:34;102303.50;;;-5.04;64.35
34961;BME280;30789;52.030;7.110;2024-01-10T02:33:01;102312.94;;;-5.02;64.80
34961;BME280;30789;52.030;7.110;2024-01-10T02:35:27;102307.91;;;-4.98;64.95
34961;BME280;30789;52.030;7.110;2024-01-10T02:37:56;102305.94;;;-5.03;64.49
34961;BME280;30789;52.030;7.110;2024-01-10T02:40:22;102304.63;;;-5.00;65.08
34961;BME280;30789;52.030;7.110;2024-01-10T02:42:50;102315.03;;;-5.04;64.19
34961;BME280;30789;52.030;7.110;2024-01-10T02:45:17;102309.41;;;-5.02;64.44
34961;BME280;30789;52.030;7.110;2024-01-10T02:47:44;102320.84;;;-4.95;64.89
34961;BME280;30789;52.030;7.110;2024-01-10T02:50:11;102319.75;;;-5.11;64.31
34961;BME280;30789;52.030;7.110;2024-01-10T02:52:37;102313.91;;;-5.08;65.14
34961;BME280;30789;52.030;7.110;2024-01-10T02:55:04;102305.34;;;-5.05;64.97
34961;BME280;30789;52.030;7.110;2024-01-10T02:57:31;102299.09;;;-5.10;65.01
34961;BME280;30789;52.030;7.110;2024-01-10T02:59:59;102308.19;;;-5.11;65.45
34961;BME280;30789;52.030;7.110;2024-01-10T03:02:26;102302.94;;;-5.18;64.71
34961;BME280;30789;52.030;7.110;2024-01-10T03:04:52;102305.16;;;-5.15;64.97
34961;BME280;30789;52.030;7.110;2024-01-10T03:07:19;102305.16;;;-5.15;65.00
34961;BME280;30789;52.030;7.110;2024-01-10T03:09:46;102305.31;;;-5.21;65.02
34961;BME280;30789;52.030;7.110;2024-01-10T03:12:12;102305.16;;;-5.15;65.05
34961;BME280;30789;52.030;7.110;2024-01-10T03:14:39;102312.53;;;-5.10;64.51
34961;BME280;30789;52.030;7.110;2024-01-10T03:17:07;102298.06;;;-5.21;64.96
34961;BME280;30789;52.030;7.110;2024-01-10T03:19:33;102296.19;;;-5.20;65.47
34961;BME280;30789;52.030;7.110;2024-01-10T03:22:02;102295.06;;;-5.24;66.09
34961;BME280;30789;52.030;7.110;2024-01-10T03:24:29;102295.69;;;-5.34;66.71
34961;BME280;30789;52.030;7.110;2024-01-10T03:26:55;102298.03;;;-5.38;66.79
34961;BME280;30789;52.030;7.110;2024-01-10T03:29:22;102294.44;;;-5.43;66.82
34961;BME280;30789;52.030;7.110;2024-01-10T03:31:48;102285.91;;;-5.52;67.18
34961;BME280;30789;52.030;7.110;2024-01-10T03:34:16;102285.03;;;-5.57;67.50
34961;BME280;30789;52.030;7.110;2024-01-10T03:36:43;102274.88;;;-5.55;67.91
34961;BME280;30789;52.030;7.110;2024-01-10T03:39:09;102286.09;;;-5.58;68.14
34961;BME280;30789;52.030;7.110;2024-01-10T03:41:36;102278.75;;;-5.63;68.21
34961;BME280;30789;52.030;7.110;2024-01-10T03:44:04;102269.75;;;-5.68;69.10
34961;BME280;30789;52.030;7.110;2024-01-10T03:46:30;102268.00;;;-5.63;68.90
34961;BME280;30789;52.030;7.110;2024-01-10T03:48:57;102269.75;;;-5.68;69.36
34961;BME280;30789;52.030;7.110;2024-01-10T03:51:25;102265.56;;;-5.64;69.45
34961;BME280;30789;52.030;7.110;2024-01-10T03:53:51;102267.78;;;-5.73;69.61
34961;BME280;30789;52.030;7.110;2024-01-10T03:56:20;102260.22;;;-5.76;69.93
34961;BME280;30789;52.030;7.110;2024-01-10T03:58:46;102268.13;;;-5.69;69.71
34961;BME280;30789;52.030;7.110;2024-01-10T04:01:14;102271.84;;;-5.70;69.57
34961;BME280;30789;52.030;7.110;2024-01-10T04:03:40;102270.13;;;-5.76;69.28
34961;BME280;30789;52.030;7.110;2024-01-10T04:06:08;102274.78;;;-5.72;69.00
34961;BME280;30789;52.030;7.110;2024-01-10T04:08:35;102269.16;;;-5.70;68.79
34961;BME280;30789;52.030;7.110;2024-01-10T04:11:03;102272.91;;;-5.71;68.55
34961;BME280;30789;52.030;7.110;2024-01-10T04:13:29;102271.41;;;-5.67;68.44
34961;BME280;30789;52.030;7.110;2024-01-10T04:15:56;102281.19;;;-5.61;68.00
34961;BME280;30789;52.030;7.110;2024-01-10T04:18:22;102272.69;;;-5.70;67.87
34961;BME280;30789;52.030;7.110;2024-01-10T04:20:49;102273.84;;;-5.66;67.82
34961;BME280;30789;52.030;7.110;2024-01-10T04:23:16;102268.31;;;-5.59;67.67
34961;BME280;30789;52.030;7.110;2024-01-10T04:25:44;102277.56;;;-5.67;67.50
34961;BME280;30789;52.030;7.110;2024-01-10T04:28:10;102278.41;;;-5.66;68.08
34961;BME280;30789;52.030;7.110;2024-01-10T04:30:37;102280.25;;;-5.67;67.99
34961;BME280;30789;52.030;7.110;2024-01-10T04:33:04;102277.44;;;-5.88;68.15
34961;BME280;30789;52.030;7.110;2024-01-10T04:35:31;102280.88;;;-5.76;68.45
34961;BME280;30789;52.030;7.110;2024-01-10T04:37:58;102271.84;;;-5.70;68.53
34961;BME280;30789;52.030;7.110;2024-01-10T04:40:24;102271.06;;;-5.71;68.46
34961;BME280;30789;52.030;7.110;2024-01-10T04:42:52;102272.34;;;-5.73;68.20
34961;BME280;30789;52.030;7.110;2024-01-10T04:45:18;102263.34;;;-5.67;68.09
34961;BME280;30789;52.030;7.110;2024-01-10T04:47:45;102268.75;;;-5.79;68.62
34961;BME280;30789;52.030;7.110;2024-01-10T04:50:11;102266.31;;;-5.80;69.07
34961;BME280;30789;52.030;7.110;2024-01-10T04:52:38;102262.16;;;-5.88;69.09
34961;BME280;30789;52.030;7.110;2024-01-10T04:55:05;102253.31;;;-6.00;69.34
34961;BME280;30789;52.030;7.110;2024-01-10T04:57:33;102264.44;;;-5.80;69.29
34961;BME280;30789;52.030;7.110;2024-01-10T05:00:01;102257.69;;;-5.82;69.29
34961;BME280;30789;52.030;7.110;2024-01-10T05:02:28;102258.00;;;-5.79;69.41
34961;BME280;30789;52.030;7.110;2024-01-10T05:04:54;102264.44;;;-5.80;70.25
34961;BME280;30789;52.030;7.110;2024-01-10T05:07:21;102256.63;;;-5.81;69.52
34961;BME280;30789;52.030;7.110;2024-01-10T05:09:47;102255.56;;;-5.80;69.36
34961;BME280;30789;52.030;7.110;2024-01-10T05:12:14;102251.19;;;-5.86;69.79
34961;BME280;30789;52.030;7.110;2024-01-10T05:14:40;102251.41;;;-5.88;69.86
34961;BME280;30789;52.030;7.110;2024-01-10T05:17:08;102244.81;;;-5.80;69.55
34961;BME280;30789;52.030;7.110;2024-01-10T05:19:35;102250.03;;;-5.90;69.54
34961;BME280;30789;52.030;7.110;2024-01-10T05:22:02;102256.31;;;-5.85;69.23
34961;BME280;30789;52.030;7.110;2024-01-10T05:24:29;102254.50;;;-5.79;69.00
34961;BME280;30789;52.030;7.110;2024-01-10T05:26:55;102263.88;;;-5.82;69.44
34961;BME280;30789;52.030;7.110;2024-01-10T05:29:22;102262.56;;;-5.79;68.75
34961;BME280;30789;52.030;7.110;2024-01-10T05:31:49;102258.59;;;-5.77;69.42
34961;BME280;30789;52.030;7.110;2024-01-10T05:34:17;102259.59;;;-5.83;68.85
34961;BME280;30789;52.030;7.110;2024-01-10T05:36:44;102264.69;;;-5.81;69.04
34961;BME280;30789;52.030;7.110;2024-01-10T05:39:10;102256.22;;;-5.73;69.02
34961;BME280;30789;52.030;7.110;2024-01-10T05:41:41;102257.63;;;-5.71;68.90
34961;BME280;30789;52.030;7.110;2024-01-10T05:44:09;102242.44;;;-5.65;68.96
34961;BME280;30789;52.030;7.110;2024-01-10T05:46:35;102240.91;;;-5.61;68.84
34961;BME280;30789;52.030;7.110;2024-01-10T05:49:02;102247.44;;;-5.69;68.64
34961;BME280;30789;52.030;7.110;2024-01-10T05:51:31;102238.84;;;-5.71;68.80
34961;BME280;30789;52.030;7.110;2024-01-10T05:53:57;102244.31;;;-5.66;68.81
34961;BME280;30789;52.030;7.110;2024-01-10T05:56:24;102238.13;;;-5.66;68.71
34961;BME280;30789;52.030;7.110;2024-01-10T05:58:50;102234.47;;;-5.60;68.77
34961;BME280;30789;52.030;7.110;2024-01-10T06:01:17;102233.41;;;-5.59;68.49
34961;BME280;30789;52.030;7.110;2024-01-10T06:03:43;102242.19;;;-5.64;68.58
34961;BME280;30789;52.030;7.110;2024-01-10T06:06:10;102236.03;;;-5.64;68.19
34961;BME280;30789;52.030;7.110;2024-01-10T06:08:38;102241.94;;;-5.62;67.79
34961;BME280;30789;52.030;7.110;2024-01-10T06:11:05;102235.13;;;-5.53;67.93
34961;BME280;30789;52.030;7.110;2024-01-10T06:13:34;102232.69;;;-5.55;67.35
34961;BME280;30789;52.030;7.110;2024-01-10T06:16:00;102218.03;;;-5.64;67.73
34961;BME280;30789;52.030;7.110;2024-01-10T06:18:27;102226.91;;;-5.63;68.27
34961;BME280;30789;52.030;7.110;2024-01-10T06:20:54;102224.09;;;-5.57;68.04
34961;BME280;30789;52.030;7.110;2024-01-10T06:23:20;102233.66;;;-5.61;67.88
34961;BME280;30789;52.030;7.110;2024-01-10T06:25:48;102227.38;;;-5.66;68.63
34961;BME280;30789;52.030;7.110;2024-01-10T06:28:15;102219.56;;;-5.68;68.57
34961;BME280;30789;52.030;7.110;2024-01-10T06:30:41;102214.31;;;-5.63;68.12
34961;BME280;30789;52.030;7.110;2024-01-10T06:33:08;102219.09;;;-5.65;68.40
34961;BME280;30789;52.030;7.110;2024-01-10T06:35:34;102234.81;;;-5.57;68.11
34961;BME280;30789;52.030;7.110;2024-01-10T06:38:02;102230.50;;;-5.58;67.76
34961;BME280;30789;52.030;7.110;2024-01-10T06:40:29;102233.72;;;-5.72;68.09
34961;BME280;30789;52.030;7.110;2024-01-10T06:42:57;102237.06;;;-5.65;68.54
34961;BME280;30789;52.030;7.110;2024-01-10T06:45:24;102227.72;;;-5.63;68.38
34961;BME280;30789;52.030;7.110;2024-01-10T06:47:50;102226.44;;;-5.60;68.28
34961;BME280;30789;52.030;7.110;2024-01-10T06:50:17;102222.75;;;-5.71;68.41
34961;BME280;30789;52.030;7.110;2024-01-10T06:52:45;102225.19;;;-5.69;68.20
34961;BME280;30789;52.030;7.110;2024-01-10T06:55:12;102230.69;;;-5.76;67.84
34961;BME280;30789;52.030;7.110;2024-01-10T06:57:39;102235.44;;;-5.66;67.84
34961;BME280;30789;52.030;7.110;2024-01-10T07:00:09;102242.91;;;-5.68;68.24
34961;BME280;30789;52.030;7.110;2024-01-10T07:02:36;102244.09;;;-5.64;68.13
34961;BME280;30789;52.030;7.110;2024-01-10T07:05:05;102252.81;;;-5.69;67.88
34961;BME280;30789;52.030;7.110;2024-01-10T07:07:33;102246.31;;;-5.73;68.21
34961;BME280;30789;52.030;7.110;2024-01-10T07:10:00;102252.28;;;-5.71;68.46
34961;BME280;30789;52.030;7.110;2024-01-10T07:12:27;102249.09;;;-5.68;68.79
34961;BME280;30789;52.030;7.110;2024-01-10T07:14:53;102251.78;;;-5.68;68.61
34961;BME280;30789;52.030;7.110;2024-01-10T07:17:21;102246.06;;;-5.71;68.60
34961;BME280;30789;52.030;7.110;2024-01-10T07:19:48;102239.38;;;-5.85;68.59
34961;BME280;30789;52.030;7.110;2024-01-10T07:22:14;102245.72;;;-5.75;68.89
34961;BME280;30789;52.030;7.110;2024-01-10T07:24:43;102247.78;;;-5.82;68.83
34961;BME280;30789;52.030;7.110;2024-01-10T07:27:09;102260.81;;;-5.74;68.74
34961;BME280;30789;52.030;7.110;2024-01-10T07:29:37;102250.31;;;-5.75;68.53
34961;BME280;30789;52.030;7.110;2024-01-10T07:32:04;102252.75;;;-5.74;68.43
34961;BME280;30789;52.030;7.110;2024-01-10T07:34:32;102264.75;;;-5.76;68.92
34961;BME280;30789;52.030;7.110;2024-01-10T07:36:59;102261.13;;;-5.70;68.71
34961;BME280;30789;52.030;7.110;2024-01-10T07:39:25;102258.66;;;-5.72;68.89
34961;BME280;30789;52.030;7.110;2024-01-10T07:41:52;102262.41;;;-5.73;68.62
34961;BME280;30789;52.030;7.110;2024-01-10T07:44:17;102265.00;;;-5.78;69.13
34961;BME280;30789;52.030;7.110;2024-01-10T07:46:44;102264.88;;;-5.71;68.82
34961;BME280;30789;52.030;7.110;2024-01-10T07:49:10;102252.06;;;-5.81;68.79
34961;BME280;30789;52.030;7.110;2024-01-10T07:51:38;102266.88;;;-5.78;69.14
34961;BME280;30789;52.030;7.110;2024-01-10T07:54:04;102252.50;;;-5.72;68.65
34961;BME280;30789;52.030;7.110;2024-01-10T07:56:31;102247.50;;;-5.80;68.57
34961;BME280;30789;52.030;7.110;2024-01-10T07:58:57;102258.09;;;-5.90;68.74
34961;BME280;30789;52.030;7.110;2024-01-10T08:01:24;102257.53;;;-5.76;69.07
34961;BME280;30789;52.030;7.110;2024-01-10T08:03:51;102254.13;;;-5.71;69.20
34961;BME280;30789;52.030;7.110;2024-01-10T08:06:17;102249.59;;;-5.71;68.37
34961;BME280;30789;52.030;7.110;2024-01-10T08:08:45;102252.03;;;-5.69;68.17
34961;BME280;30789;52.030;7.110;2024-01-10T08:11:12;102254.81;;;-5.64;68.34
34961;BME280;30789;52.030;7.110;2024-01-10T08:13:38;102260.63;;;-5.56;67.61
34961;BME280;30789;52.030;7.110;2024-01-10T08:16:08;102259.47;;;-5.60;67.35
34961;BME280;30789;52.030;7.110;2024-01-10T08:18:34;102252.91;;;-5.52;67.02
34961;BME280;30789;52.030;7.110;2024-01-10T08:21:01;102256.25;;;-5.45;66.97
34961;BME280;30789;52.030;7.110;2024-01-10T08:23:32;102249.00;;;-5.45;67.10
34961;BME280;30789;52.030;7.110;2024-01-10T08:26:00;102255.03;;;-5.38;67.12
34961;BME280;30789;52.030;7.110;2024-01-10T08:28:27;102262.38;;;-5.33;65.78
34961;BME280;30789;52.030;7.110;2024-01-10T08:30:54;102259.41;;;-5.48;66.38
34961;BME280;30789;52.030;7.110;2024-01-10T08:33:21;102270.03;;;-5.42;66.99
34961;BME280;30789;52.030;7.110;2024-01-10T08:35:47;102272.59;;;-5.47;66.62
34961;BME280;30789;52.030;7.110;2024-01-10T08:38:14;102260.06;;;-5.41;66.66
34961;BME280;30789;52.030;7.110;2024-01-10T08:40:41;102259.94;;;-5.35;66.54
34961;BME280;30789;52.030;7.110;2024-01-10T08:43:09;102272.94;;;-5.43;65.55
34961;BME280;30789;52.030;7.110;2024-01-10T08:45:35;102260.28;;;-5.31;65.81
34961;BME280;30789;52.030;7.110;2024-01-10T08:48:02;102261.09;;;-5.31;65.34
34961;BME280;30789;52.030;7.110;2024-01-10T08:50:30;102262.63;;;-5.18;65.58
34961;BME280;30789;52.030;7.110;2024-01-10T08:52:58;102269.19;;;-5.14;65.43
34961;BME280;30789;52.030;7.110;2024-01-10T08:55:26;102252.22;;;-5.14;65.08
34961;BME280;30789;52.030;7.110;2024-01-10T08:57:52;102264.63;;;-5.13;64.85
34961;BME280;30789;52.030;7.110;2024-01-10T09:00:22;102260.16;;;-5.08;64.57
34961;BME280;30789;52.030;7.110;2024-01-10T09:02:49;102250.88;;;-5.00;63.66
34961;BME280;30789;52.030;7.110;2024-01-10T09:05:17;102248.50;;;-4.97;63.58
34961;BME280;30789;52.030;7.110;2024-01-10T09:07:44;102244.34;;;-5.04;63.34
34961;BME280;30789;52.030;7.110;2024-01-10T09:10:10;102240.75;;;-4.93;63.42
34961;BME280;30789;52.030;7.110;2024-01-10T09:12:37;102252.25;;;-4.98;63.81
34961;BME280;30789;52.030;7.110;2024-01-10T09:15:04;102261.28;;;-4.87;63.24
34961;BME280;30789;52.030;7.110;2024-01-10T09:17:34;102263.56;;;-4.79;63.06
34961;BME280;30789;52.030;7.110;2024-01-10T09:20:01;102256.91;;;-4.77;62.52
34961;BME280;30789;52.030;7.110;2024-01-10T09:22:28;102254.97;;;-4.81;62.45
34961;BME280;30789;52.030;7.110;2024-01-10T09:24:55;102253.31;;;-4.82;62.31
34961;BME280;30789;52.030;7.110;2024-01-10T09:27:24;102251.34;;;-4.70;61.88
34961;BME280;30789;52.030;7.110;2024-01-10T09:29:51;102251.94;;;-4.68;60.95
34961;BME280;30789;52.030;7.110;2024-01-10T09:32:17;102256.91;;;-4.60;63.34
34961;BME280;30789;52.030;7.110;2024-01-10T09:34:45;102251.44;;;-4.65;61.98
34961;BME280;30789;52.030;7.110;2024-01-10T09:37:12;102257.78;;;-4.55;61.85
34961;BME280;30789;52.030;7.110;2024-01-10T09:39:38;102261.03;;;-4.53;61.63
34961;BME280;30789;52.030;7.110;2024-01-10T09:42:05;102250.16;;;-4.41;61.75
34961;BME280;30789;52.030;7.110;2024-01-10T09:44:32;102247.47;;;-4.41;61.66
34961;BME280;30789;52.030;7.110;2024-01-10T09:47:00;102254.50;;;-4.40;61.10
34961;BME280;30789;52.030;7.110;2024-01-10T09:49:27;102260.69;;;-4.40;60.92
34961;BME280;30789;52.030;7.110;2024-01-10T09:51:58;102259.41;;;-4.37;61.04
34961;BME280;30789;52.030;7.110;2024-01-10T09:54:25;102253.03;;;-4.31;60.97
34961;BME280;30789;52.030;7.110;2024-01-10T09:56:52;102258.06;;;-4.35;60.53
34961;BME280;30789;52.030;7.110;2024-01-10T09:59:21;102258.78;;;-4.23;59.90
34961;BME280;30789;52.030;7.110;2024-01-10T10:01:47;102256.66;;;-4.21;60.02
34961;BME280;30789;52.030;7.110;2024-01-10T10:04:16;102264.81;;;-4.16;59.52
34961;BME280;30789;52.030;7.110;2024-01-10T10:06:44;102258.19;;;-4.08;59.34
34961;BME280;30789;52.030;7.110;2024-01-10T10:09:12;102256.88;;;-4.06;59.59
34961;BME280;30789;52.030;7.110;2024-01-10T10:11:39;102249.97;;;-3.97;59.47
34961;BME280;30789;52.030;7.110;2024-01-10T10:14:18;102247.50;;;-4.03;59.32
34961;BME280;30789;52.030;7.110;2024-01-10T10:16:44;102241.22;;;-3.87;60.15
34961;BME280;30789;52.030;7.110;2024-01-10T10:19:11;102246.16;;;-3.79;59.97
34961;BME280;30789;52.030;7.110;2024-01-10T10:21:38;102249.38;;;-3.82;59.54
34961;BME280;30789;52.030;7.110;2024-01-10T10:24:05;102240.63;;;-3.68;59.12
34961;BME280;30789;52.030;7.110;2024-01-10T10:26:36;102236.25;;;-3.74;59.52
34961;BME280;30789;52.030;7.110;2024-01-10T10:29:03;102246.91;;;-3.62;59.35
34961;BME280;30789;52.030;7.110;2024-01-10T10:31:30;102245.25;;;-3.63;58.17
34961;BME280;30789;52.030;7.110;2024-01-10T10:33:59;102245.06;;;-3.57;57.66
34961;BME280;30789;52.030;7.110;2024-01-10T10:36:26;102247.56;;;-3.50;58.05
34961;BME280;30789;52.030;7.110;2024-01-10T10:38:53;102249.31;;;-3.39;58.31
34961;BME280;30789;52.030;7.110;2024-01-10T10:41:19;102241.81;;;-3.32;57.69
34961;BME280;30789;52.030;7.110;2024-01-10T10:43:48;102237.84;;;-3.24;57.83
34961;BME280;30789;52.030;7.110;2024-01-10T10:46:16;102242.06;;;-3.07;57.79
34961;BME280;30789;52.030;7.110;2024-01-10T10:48:42;102239.97;;;-3.00;57.28
34961;BME280;30789;52.030;7.110;2024-01-10T10:51:11;102239.81;;;-2.88;57.27
34961;BME280;30789;52.030;7.110;2024-01-10T10:53:39;102234.75;;;-2.80;56.04
34961;BME280;30789;52.030;7.110;2024-01-10T10:56:11;102234.53;;;-2.73;56.01
34961;BME280;30789;52.030;7.110;2024-01-10T10:58:40;102226.03;;;-2.09;54.95
34961;BME280;30789;52.030;7.110;2024-01-10T11:01:09;102232.44;;;-1.48;52.50
34961;BME280;30789;52.030;7.110;2024-01-10T11:03:37;102234.69;;;-1.00;51.54
34961;BME280;30789;52.030;7.110;2024-01-10T11:06:05;102231.44;;;-1.02;50.63
34961;BME280;30789;52.030;7.110;2024-01-10T11:08:35;102224.09;;;-0.51;50.09
34961;BME280;30789;52.030;7.110;2024-01-10T11:11:04;102218.13;;;-0.33;48.85
34961;BME280;30789;52.030;7.110;2024-01-10T11:14:02;102229.31;;;0.14;48.98
34961;BME280;30789;52.030;7.110;2024-01-10T11:16:48;102228.09;;;0.50;47.92
34961;BME280;30789;52.030;7.110;2024-01-10T11:19:40;102225.19;;;0.75;46.75
34961;BME280;30789;52.030;7.110;2024-01-10T11:22:17;102237.03;;;0.89;47.53
34961;BME280;30789;52.030;7.110;2024-01-10T11:24:51;102229.25;;;0.83;46.76
34961;BME280;30789;52.030;7.110;2024-01-10T11:27:18;102226.44;;;0.93;46.44
34961;BME280;30789;52.030;7.110;2024-01-10T11:29:46;102227.13;;;1.08;45.70
34961;BME280;30789;52.030;7.110;2024-01-10T11:32:15;102220.81;;;1.18;45.54
34961;BME280;30789;52.030;7.110;2024-01-10T11:34:49;102227.28;;;1.50;45.55
34961;BME280;30789;52.030;7.110;2024-01-10T11:37:16;102219.69;;;1.24;45.54
34961;BME280;30789;52.030;7.110;2024-01-10T11:39:42;102210.47;;;1.20;45.68
34961;BME280;30789;52.030;7.110;2024-01-10T11:42:10;102209.59;;;0.96;46.04
34961;BME280;30789;52.030;7.110;2024-01-10T11:44:47;102202.31;;;0.86;46.61
34961;BME280;30789;52.030;7.110;2024-01-10T11:47:16;102202.84;;;0.93;46.12
34961;BME280;30789;52.030;7.110;2024-01-10T11:49:54;102206.22;;;1.66;44.90
34961;BME280;30789;52.030;7.110;2024-01-10T11:52:21;102207.50;;;2.58;43.31
34961;BME280;30789;52.030;7.110;2024-01-10T11:54:48;102196.22;;;3.01;42.67
34961;BME280;30789;52.030;7.110;2024-01-10T11:57:19;102205.75;;;2.48;42.99
34961;BME280;30789;52.030;7.110;2024-01-10T11:59:46;102201.81;;;2.17;43.10
34961;BME280;30789;52.030;7.110;2024-01-10T12:02:15;102202.72;;;2.68;42.73
34961;BME280;30789;52.030;7.110;2024-01-10T12:04:43;102183.63;;;3.51;40.48
34961;BME280;30789;52.030;7.110;2024-01-10T12:07:11;102182.13;;;3.99;39.29
34961;BME280;30789;52.030;7.110;2024-01-10T12:09:37;102184.28;;;4.51;38.21
34961;BME280;30789;52.030;7.110;2024-01-10T12:12:05;102191.28;;;4.44;37.53
34961;BME280;30789;52.030;7.110;2024-01-10T12:14:33;102182.84;;;4.54;37.97
34961;BME280;30789;52.030;7.110;2024-01-10T12:17:00;102178.00;;;4.51;38.41
34961;BME280;30789;52.030;7.110;2024-01-10T12:19:28;102179.59;;;4.65;37.55
34961;BME280;30789;52.030;7.110;2024-01-10T12:21:55;102187.38;;;3.96;37.72
34961;BME280;30789;52.030;7.110;2024-01-10T12:24:22;102186.63;;;3.36;39.15
34961;BME280;30789;52.030;7.110;2024-01-10T12:26:49;102184.06;;;3.58;39.62
34961;BME280;30789;52.030;7.110;2024-01-10T12:29:17;102187.09;;;3.84;39.42
34961;BME280;30789;52.030;7.110;2024-01-10T12:31:45;102183.44;;;4.29;39.25
34961;BME280;30789;52.030;7.110;2024-01-10T12:34:12;102179.63;;;4.03;39.07
34961;BME280;30789;52.030;7.110;2024-01-10T12:36:41;102180.09;;;4.05;38.73
34961;BME280;30789;52.030;7.110;2024-01-10T12:39:07;102186.25;;;4.24;37.82
34961;BME280;30789;52.030;7.110;2024-01-10T12:41:34;102183.03;;;4.93;36.98
34961;BME280;30789;52.030;7.110;2024-01-10T12:44:01;102177.06;;;4.55;36.78
34961;BME280;30789;52.030;7.110;2024-01-10T12:46:29;102181.91;;;5.16;37.10
34961;BME280;30789;52.030;7.110;2024-01-10T12:49:01;102177.59;;;5.46;36.92
34961;BME280;30789;52.030;7.110;2024-01-10T12:51:27;102181.28;;;5.80;35.32